createdAt,value
2018-07-25T00:00:13.534Z,61.10
2018-07-25T00:02:40.726Z,60.60
2018-07-25T00:05:07.938Z,60.80
2018-07-25T00:07:35.108Z,61.60
2018-07-25T00:10:02.328Z,61.80
2018-07-25T00:12:29.507Z,62.20
2018-07-25T00:14:57.284Z,62.30
2018-07-25T00:17:24.536Z,62.70
2018-07-25T00:19:51.820Z,62.60
2018-07-25T00:22:19.002Z,62.60
2018-07-25T00:24:46.168Z,61.50
2018-07-25T00:27:13.388Z,61.80
2018-07-25T00:29:40.664Z,60.80
2018-07-25T00:32:07.901Z,60.30
2018-07-25T00:34:35.081Z,60.00
2018-07-25T00:37:02.285Z,59.90
2018-07-25T00:41:56.838Z,61.20
2018-07-25T00:44:24.007Z,61.90
2018-07-25T00:46:51.245Z,61.10
2018-07-25T00:49:18.415Z,60.80
2018-07-25T00:51:45.601Z,61.10
2018-07-25T00:54:12.761Z,62.40
2018-07-25T00:56:39.943Z,63.00
2018-07-25T00:59:07.208Z,62.90
2018-07-25T01:01:34.430Z,63.10
2018-07-25T01:04:01.632Z,63.10
2018-07-25T01:06:28.855Z,62.60
2018-07-25T01:08:56.044Z,63.30
2018-07-25T01:11:23.283Z,63.20
2018-07-25T01:13:50.460Z,62.00
2018-07-25T01:16:17.640Z,62.20
2018-07-25T01:18:44.839Z,62.70
2018-07-25T01:21:12.355Z,62.70
2018-07-25T01:23:39.535Z,63.10
2018-07-25T01:26:06.745Z,63.50
2018-07-25T01:28:33.907Z,65.10
2018-07-25T01:31:01.117Z,63.60
2018-07-25T01:33:28.285Z,63.50
2018-07-25T01:35:55.468Z,64.10
2018-07-25T01:38:22.631Z,63.30
2018-07-25T01:40:49.816Z,62.70
2018-07-25T01:43:17.094Z,63.50
2018-07-25T01:45:44.292Z,63.30
2018-07-25T01:48:11.464Z,63.80
2018-07-25T01:50:38.672Z,63.90
2018-07-25T01:53:05.847Z,64.90
2018-07-25T01:55:33.024Z,66.70
2018-07-25T01:58:00.184Z,65.00
2018-07-25T02:00:27.374Z,67.00
2018-07-25T02:02:54.544Z,66.80
2018-07-25T02:05:21.712Z,66.10
2018-07-25T02:07:48.874Z,66.00
2018-07-25T02:10:16.045Z,66.00
2018-07-25T02:12:43.206Z,65.80
2018-07-25T02:15:10.400Z,65.60
2018-07-25T02:17:37.559Z,65.30
2018-07-25T02:20:04.920Z,65.50
2018-07-25T02:22:32.119Z,67.50
2018-07-25T02:24:59.319Z,66.30
2018-07-25T02:27:26.500Z,65.10
2018-07-25T02:29:53.679Z,65.40
2018-07-25T02:32:20.876Z,64.20
2018-07-25T02:34:48.044Z,65.10
2018-07-25T02:37:15.213Z,65.20
2018-07-25T02:39:42.387Z,65.50
2018-07-25T02:42:09.663Z,66.00
2018-07-25T02:44:36.828Z,66.40
2018-07-25T02:47:04.032Z,66.10
2018-07-25T02:49:31.191Z,66.00
2018-07-25T02:51:58.398Z,66.20
2018-07-25T02:54:25.564Z,66.10
2018-07-25T02:56:52.788Z,65.50
2018-07-25T02:59:19.992Z,65.80
2018-07-25T03:01:47.176Z,66.50
2018-07-25T03:04:14.322Z,66.40
2018-07-25T03:06:41.492Z,66.20
2018-07-25T03:09:09.392Z,66.10
2018-07-25T03:11:36.570Z,66.00
2018-07-25T03:14:03.744Z,65.70
2018-07-25T03:16:30.931Z,65.50
2018-07-25T03:18:58.099Z,65.10
2018-07-25T03:21:25.318Z,65.10
2018-07-25T03:23:52.496Z,65.00
2018-07-25T03:26:19.674Z,64.50
2018-07-25T03:28:46.856Z,64.90
2018-07-25T03:31:14.057Z,64.70
2018-07-25T03:33:41.202Z,64.50
2018-07-25T03:36:08.388Z,64.60
2018-07-25T03:38:35.556Z,64.60
2018-07-25T03:41:02.742Z,65.00
2018-07-25T03:43:29.899Z,64.60
2018-07-25T03:45:57.080Z,64.20
2018-07-25T03:48:24.256Z,64.40
2018-07-25T03:53:18.643Z,63.70
2018-07-25T03:55:45.807Z,64.00
2018-07-25T03:58:12.970Z,64.00
2018-07-25T04:00:40.247Z,64.50
2018-07-25T04:03:07.440Z,65.60
2018-07-25T04:05:34.607Z,66.40
2018-07-25T04:08:01.793Z,67.00
2018-07-25T04:10:29.003Z,67.30
2018-07-25T04:12:56.176Z,67.40
2018-07-25T04:15:23.334Z,66.90
2018-07-25T04:17:50.520Z,68.80
2018-07-25T04:20:18.756Z,69.20
2018-07-25T04:22:46.082Z,69.30
2018-07-25T04:25:13.262Z,69.60
2018-07-25T04:27:41.508Z,68.20
2018-07-25T04:32:37.652Z,67.30
2018-07-25T04:35:04.978Z,69.00
2018-07-25T04:37:32.152Z,69.60
2018-07-25T04:39:59.324Z,68.60
2018-07-25T04:42:26.487Z,68.80
2018-07-25T04:44:53.643Z,69.90
2018-07-25T04:47:21.129Z,70.00
2018-07-25T04:49:48.292Z,69.90
2018-07-25T04:52:15.871Z,70.00
2018-07-25T04:54:43.439Z,69.10
2018-07-25T04:57:10.723Z,70.20
2018-07-25T04:59:37.908Z,70.30
2018-07-25T05:02:05.139Z,70.20
2018-07-25T05:04:32.300Z,70.90
2018-07-25T05:06:59.656Z,70.50
2018-07-25T05:09:26.778Z,70.60
2018-07-25T05:11:53.943Z,70.10
2018-07-25T05:14:21.106Z,70.50
2018-07-25T05:16:48.297Z,70.40
2018-07-25T05:19:15.482Z,71.10
2018-07-25T05:21:42.667Z,71.70
2018-07-25T05:24:09.844Z,72.00
2018-07-25T05:26:37.034Z,72.10
2018-07-25T05:29:04.219Z,72.50
2018-07-25T05:31:31.426Z,73.50
2018-07-25T05:33:58.631Z,73.50
2018-07-25T05:36:25.784Z,73.30
2018-07-25T05:38:52.954Z,73.10
2018-07-25T05:41:20.141Z,73.20
2018-07-25T05:43:47.334Z,71.90
2018-07-25T05:46:17.296Z,70.80
2018-07-25T05:48:44.471Z,70.50
2018-07-25T05:51:11.628Z,71.10
2018-07-25T05:53:38.823Z,71.50
2018-07-25T05:56:05.995Z,71.40
2018-07-25T05:58:33.172Z,71.30
2018-07-25T06:01:00.349Z,71.50
2018-07-25T06:03:27.649Z,71.10
2018-07-25T06:08:21.992Z,71.60
2018-07-25T06:10:49.156Z,71.40
2018-07-25T06:13:16.353Z,70.90
2018-07-25T06:15:43.514Z,70.70
2018-07-25T06:18:10.720Z,70.80
2018-07-25T06:20:37.942Z,71.20
2018-07-25T06:23:05.154Z,71.30
2018-07-25T06:25:32.320Z,71.30
2018-07-25T06:27:59.486Z,70.20
2018-07-25T06:30:26.663Z,70.90
2018-07-25T06:32:53.838Z,70.50
2018-07-25T06:35:21.029Z,70.30
2018-07-25T06:37:48.280Z,70.50
2018-07-25T06:40:15.405Z,70.80
2018-07-25T06:42:42.583Z,71.00
2018-07-25T06:45:09.772Z,71.30
2018-07-25T06:47:36.948Z,70.60
2018-07-25T06:50:05.094Z,68.90
2018-07-25T06:52:32.275Z,69.90
2018-07-25T06:54:59.451Z,68.90
2018-07-25T07:00:00.492Z,68.60
2018-07-25T07:02:27.728Z,68.80
2018-07-25T07:04:55.048Z,69.50
2018-07-25T07:07:22.227Z,68.80
2018-07-25T07:09:49.388Z,69.70
2018-07-25T07:12:16.600Z,69.60
2018-07-25T07:14:43.783Z,68.80
2018-07-25T07:17:11.160Z,68.00
2018-07-25T07:19:38.334Z,67.90
2018-07-25T07:22:05.577Z,67.10
2018-07-25T07:24:32.841Z,67.30
2018-07-25T07:27:00.045Z,65.40
2018-07-25T07:29:27.355Z,64.90
2018-07-25T07:31:54.688Z,65.50
2018-07-25T07:34:21.979Z,66.40
2018-07-25T07:36:49.202Z,66.00
2018-07-25T07:39:16.504Z,65.60
2018-07-25T07:44:11.041Z,66.50
2018-07-25T07:49:05.640Z,64.90
2018-07-25T07:51:32.883Z,62.00
2018-07-25T07:54:00.480Z,62.00
2018-07-25T07:56:27.727Z,62.20
2018-07-25T07:58:55.071Z,59.80
2018-07-25T08:01:22.455Z,56.40
2018-07-25T08:03:49.655Z,58.70
2018-07-25T08:06:16.823Z,58.70
2018-07-25T08:08:44.096Z,57.00
2018-07-25T08:11:18.574Z,56.60
2018-07-25T08:13:46.499Z,54.40
2018-07-25T08:16:13.738Z,56.90
2018-07-25T08:18:41.043Z,58.40
2018-07-25T08:21:08.360Z,56.70
2018-07-25T08:23:35.453Z,57.50
2018-07-25T08:26:02.602Z,56.10
2018-07-25T08:28:29.763Z,56.40
2018-07-25T08:30:56.944Z,55.40
2018-07-25T08:33:24.098Z,53.60
2018-07-25T08:35:51.651Z,55.20
2018-07-25T08:38:41.113Z,53.80
2018-07-25T08:41:08.392Z,53.00
2018-07-25T08:43:36.894Z,52.10
2018-07-25T08:46:04.516Z,53.50
2018-07-25T08:48:31.930Z,47.50
2018-07-25T08:50:59.247Z,49.10
2018-07-25T08:53:26.462Z,48.60
2018-07-25T08:55:53.748Z,51.80
2018-07-25T08:58:20.938Z,46.50
2018-07-25T09:03:15.859Z,50.00
2018-07-25T09:05:43.028Z,48.10
2018-07-25T09:08:10.283Z,48.10
2018-07-25T09:10:37.623Z,48.80
2018-07-25T09:13:05.025Z,48.90
2018-07-25T09:15:32.166Z,49.10
2018-07-25T09:17:59.352Z,46.80
2018-07-25T09:20:26.494Z,47.50
2018-07-25T09:22:53.712Z,45.70
2018-07-25T09:25:20.938Z,43.40
2018-07-25T09:27:48.208Z,44.70
2018-07-25T09:30:15.390Z,44.90
2018-07-25T09:32:42.651Z,44.60
2018-07-25T09:35:09.834Z,46.10
2018-07-25T09:37:37.004Z,45.50
2018-07-25T09:40:04.188Z,45.50
2018-07-25T09:42:31.499Z,44.20
2018-07-25T09:44:58.687Z,43.60
2018-07-25T09:47:25.844Z,44.60
2018-07-25T09:49:53.027Z,42.40
2018-07-25T09:52:20.242Z,42.00
2018-07-25T09:54:47.415Z,42.20
2018-07-25T09:57:14.680Z,39.10
2018-07-25T09:59:41.852Z,38.20
2018-07-25T10:02:09.153Z,35.40
2018-07-25T10:04:36.338Z,35.70
2018-07-25T10:07:03.577Z,35.80
2018-07-25T10:09:30.717Z,32.80
2018-07-25T10:11:57.904Z,33.60
2018-07-25T10:14:25.088Z,32.80
2018-07-25T10:16:52.287Z,30.00
2018-07-25T10:21:46.667Z,29.50
2018-07-25T10:24:13.859Z,28.60
2018-07-25T10:26:41.199Z,28.10
2018-07-25T10:29:08.460Z,28.20
2018-07-25T10:31:35.609Z,28.40
2018-07-25T10:34:02.820Z,30.00
2018-07-25T10:36:30.095Z,27.40
2018-07-25T10:38:57.278Z,27.20
2018-07-25T10:41:24.415Z,28.00
2018-07-25T10:46:18.752Z,26.50
2018-07-25T10:48:45.935Z,26.50
2018-07-25T10:51:13.080Z,25.90
2018-07-25T10:53:40.345Z,26.10
2018-07-25T10:56:07.515Z,26.00
2018-07-25T10:58:34.688Z,25.10
2018-07-25T11:01:01.871Z,26.50
2018-07-25T11:03:29.095Z,25.30
2018-07-25T11:05:56.279Z,27.50
2018-07-25T11:08:23.472Z,26.70
2018-07-25T11:10:50.637Z,27.00
2018-07-25T11:13:17.817Z,25.90
2018-07-25T11:15:44.980Z,25.60
2018-07-25T11:18:12.144Z,23.80
2018-07-25T11:20:39.322Z,24.20
2018-07-25T11:23:06.582Z,24.90
2018-07-25T11:25:33.726Z,23.90
2018-07-25T11:28:00.904Z,25.40
2018-07-25T11:30:28.083Z,26.60
2018-07-25T11:35:22.458Z,25.90
2018-07-25T11:37:49.620Z,26.90
2018-07-25T11:40:16.763Z,26.20
2018-07-25T11:42:43.927Z,24.20
2018-07-25T11:45:11.139Z,25.50
2018-07-25T11:47:38.308Z,25.30
2018-07-25T11:50:05.574Z,24.30
2018-07-25T11:52:32.686Z,25.10
2018-07-25T11:55:00.101Z,26.30
2018-07-25T11:57:27.254Z,25.10
2018-07-25T11:59:54.424Z,26.10
2018-07-25T12:02:21.866Z,25.80
2018-07-25T12:04:49.029Z,25.40
2018-07-25T12:07:16.189Z,28.00
2018-07-25T12:09:43.434Z,28.10
2018-07-25T12:12:10.617Z,29.40
2018-07-25T12:14:37.798Z,31.40
2018-07-25T12:17:04.972Z,29.60
2018-07-25T12:19:32.144Z,29.00
2018-07-25T12:21:59.352Z,29.30
2018-07-25T12:24:26.557Z,30.80
2018-07-25T12:26:53.788Z,30.80
2018-07-25T12:29:20.971Z,28.50
2018-07-25T12:31:48.293Z,28.60
2018-07-25T12:34:15.479Z,27.40
2018-07-25T12:36:42.713Z,27.30
2018-07-25T12:39:10.239Z,30.10
2018-07-25T12:41:37.913Z,30.80
2018-07-25T12:44:05.364Z,29.70
2018-07-25T12:46:32.532Z,29.60
2018-07-25T12:48:59.746Z,32.30
2018-07-25T12:51:26.887Z,31.00
2018-07-25T12:53:54.105Z,35.10
2018-07-25T12:56:21.237Z,33.40
2018-07-25T12:58:48.417Z,32.70
2018-07-25T13:01:15.619Z,30.00
2018-07-25T13:03:42.899Z,34.70
2018-07-25T13:06:10.114Z,30.10
2018-07-25T13:08:37.282Z,35.10
2018-07-25T13:11:11.258Z,32.30
2018-07-25T13:13:38.418Z,34.50
2018-07-25T13:16:05.638Z,32.00
2018-07-25T13:18:33.623Z,31.50
2018-07-25T13:21:00.811Z,34.40
2018-07-25T13:23:27.991Z,35.70
2018-07-25T13:25:55.644Z,35.60
2018-07-25T13:28:22.868Z,29.30
2018-07-25T13:30:50.024Z,28.30
2018-07-25T13:33:17.179Z,29.60
2018-07-25T13:35:44.388Z,29.80
2018-07-25T13:38:11.552Z,31.70
2018-07-25T13:40:38.723Z,29.20
2018-07-25T13:43:05.919Z,29.30
2018-07-25T13:45:33.181Z,27.30
2018-07-25T13:48:00.283Z,28.40
2018-07-25T13:50:27.459Z,29.80
2018-07-25T13:52:54.640Z,29.80
2018-07-25T13:55:21.830Z,29.40
2018-07-25T13:57:48.996Z,26.20
2018-07-25T14:00:16.168Z,26.90
2018-07-25T14:02:43.339Z,26.70
2018-07-25T14:05:10.577Z,27.10
2018-07-25T14:07:37.696Z,28.30
2018-07-25T14:10:05.165Z,27.00
2018-07-25T14:12:32.360Z,27.00
2018-07-25T14:14:59.718Z,27.30
2018-07-25T14:17:27.014Z,27.80
2018-07-25T14:19:54.218Z,28.10
2018-07-25T14:22:21.399Z,27.70
2018-07-25T14:24:48.581Z,29.10
2018-07-25T14:27:15.776Z,27.60
2018-07-25T14:29:42.946Z,28.20
2018-07-25T14:32:10.117Z,28.30
2018-07-25T14:34:37.334Z,28.80
2018-07-25T14:37:04.475Z,29.00
2018-07-25T14:39:31.659Z,28.80
2018-07-25T14:41:58.828Z,28.80
2018-07-25T14:44:26.057Z,28.80
2018-07-25T14:46:53.292Z,28.50
2018-07-25T14:49:20.432Z,28.80
2018-07-25T14:51:47.612Z,27.60
2018-07-25T14:54:14.806Z,27.90
2018-07-25T14:56:42.038Z,28.50
2018-07-25T14:59:09.363Z,29.50
2018-07-25T15:01:36.542Z,30.90
2018-07-25T15:04:03.747Z,30.50
2018-07-25T15:06:30.963Z,29.70
2018-07-25T15:08:58.143Z,30.10
2018-07-25T15:11:25.336Z,29.80
2018-07-25T15:13:52.495Z,29.80
2018-07-25T15:16:19.672Z,30.00
2018-07-25T15:18:46.851Z,31.50
2018-07-25T15:21:14.029Z,31.40
2018-07-25T15:23:53.347Z,28.90
2018-07-25T15:26:20.455Z,29.20
2018-07-25T15:28:47.646Z,30.60
2018-07-25T15:31:14.972Z,31.50
2018-07-25T15:33:42.227Z,30.60
2018-07-25T15:36:11.133Z,33.90
2018-07-25T15:38:38.314Z,32.00
2018-07-25T15:41:05.764Z,32.10
2018-07-25T15:43:32.944Z,32.20
2018-07-25T15:46:00.145Z,30.80
2018-07-25T15:48:27.332Z,31.00
2018-07-25T15:50:54.571Z,31.20
2018-07-25T15:53:21.740Z,33.40
2018-07-25T15:55:48.947Z,30.80
2018-07-25T15:58:16.116Z,33.60
2018-07-25T16:00:43.304Z,32.90
2018-07-25T16:03:11.020Z,32.40
2018-07-25T16:05:38.207Z,28.50
2018-07-25T16:08:05.380Z,30.00
2018-07-25T16:10:32.571Z,30.70
2018-07-25T16:15:26.983Z,33.10
2018-07-25T16:17:54.123Z,32.00
2018-07-25T16:20:21.325Z,31.50
2018-07-25T16:22:48.505Z,34.60
2018-07-25T16:25:15.711Z,32.10
2018-07-25T16:27:42.880Z,33.00
2018-07-25T16:30:10.247Z,34.80
2018-07-25T16:32:37.451Z,35.60
2018-07-25T16:35:04.818Z,36.30
2018-07-25T16:37:32.004Z,37.40
2018-07-25T16:39:59.228Z,36.50
2018-07-25T16:42:26.402Z,34.90
2018-07-25T16:44:53.571Z,36.60
2018-07-25T16:47:20.735Z,35.90
2018-07-25T16:49:47.971Z,37.20
2018-07-25T16:52:15.151Z,36.80
2018-07-25T16:54:42.335Z,37.00
2018-07-25T16:57:09.808Z,36.70
2018-07-25T16:59:37.115Z,38.20
2018-07-25T17:02:04.356Z,39.50
2018-07-25T17:04:31.539Z,39.90
2018-07-25T17:06:58.725Z,40.60
2018-07-25T17:09:25.895Z,40.40
2018-07-25T17:11:53.112Z,41.80
2018-07-25T17:14:20.296Z,43.90
2018-07-25T17:16:47.510Z,43.40
2018-07-25T17:19:14.659Z,44.50
2018-07-25T17:21:41.902Z,45.30
2018-07-25T17:24:09.175Z,45.10
2018-07-25T17:26:36.384Z,46.40
2018-07-25T17:29:03.638Z,47.10
2018-07-25T17:31:30.835Z,45.60
2018-07-25T17:33:58.412Z,47.10
2018-07-25T17:36:25.753Z,47.00
2018-07-25T17:38:53.044Z,47.00
2018-07-25T17:41:20.468Z,48.10
2018-07-25T17:43:47.609Z,47.30
2018-07-25T17:46:14.874Z,43.70
2018-07-25T17:48:42.032Z,44.60
2018-07-25T17:51:09.311Z,42.30
2018-07-25T17:56:03.703Z,44.10
2018-07-25T17:58:30.872Z,43.40
2018-07-25T18:00:58.107Z,41.80
2018-07-25T18:03:25.393Z,41.40
2018-07-25T18:05:52.505Z,41.20
2018-07-25T18:08:19.672Z,41.60
2018-07-25T18:10:46.895Z,42.70
2018-07-25T18:13:19.944Z,41.90
2018-07-25T18:15:47.126Z,41.90
2018-07-25T18:18:14.275Z,44.20
2018-07-25T18:20:41.527Z,45.10
2018-07-25T18:23:08.749Z,47.30
2018-07-25T18:25:35.912Z,48.40
2018-07-25T18:28:03.191Z,49.50
2018-07-25T18:30:30.385Z,48.40
2018-07-25T18:32:57.596Z,48.50
2018-07-25T18:35:24.862Z,49.90
2018-07-25T18:37:52.175Z,51.00
2018-07-25T18:40:19.418Z,51.00
2018-07-25T18:45:13.979Z,51.80
2018-07-25T18:47:41.263Z,49.90
2018-07-25T18:50:09.355Z,47.60
2018-07-25T18:52:36.531Z,44.40
2018-07-25T18:55:03.755Z,43.00
2018-07-25T18:57:30.951Z,44.40
2018-07-25T18:59:58.099Z,45.50
2018-07-25T19:02:25.320Z,46.60
2018-07-25T19:04:52.515Z,47.00
2018-07-25T19:07:19.956Z,44.70
2018-07-25T19:09:47.195Z,45.30
2018-07-25T19:12:14.356Z,44.50
2018-07-25T19:14:47.318Z,45.40
2018-07-25T19:17:14.512Z,45.60
2018-07-25T19:19:41.692Z,47.40
2018-07-25T19:22:08.891Z,47.40
2018-07-25T19:24:36.175Z,48.60
2018-07-25T19:27:03.680Z,48.50
2018-07-25T19:29:30.975Z,48.90
2018-07-25T19:31:58.177Z,49.30
2018-07-25T19:34:25.351Z,48.60
2018-07-25T19:36:52.534Z,49.20
2018-07-25T19:39:20.009Z,49.30
2018-07-25T19:41:47.172Z,50.20
2018-07-25T19:44:14.330Z,51.40
2018-07-25T19:46:41.475Z,49.90
2018-07-25T19:49:08.951Z,51.80
2018-07-25T19:54:03.077Z,52.00
2018-07-25T19:56:30.262Z,52.50
2018-07-25T19:58:57.428Z,51.80
2018-07-25T20:01:24.696Z,52.40
2018-07-25T20:03:51.867Z,52.60
2018-07-25T20:08:46.324Z,53.00
2018-07-25T20:11:13.493Z,52.70
2018-07-25T20:13:46.551Z,52.70
2018-07-25T20:16:13.732Z,52.00
2018-07-25T20:18:40.899Z,53.00
2018-07-25T20:21:08.091Z,53.10
2018-07-25T20:23:35.284Z,53.00
2018-07-25T20:26:02.453Z,52.40
2018-07-25T20:28:29.633Z,51.90
2018-07-25T20:30:56.787Z,52.80
2018-07-25T20:33:23.952Z,53.10
2018-07-25T20:38:18.307Z,52.00
2018-07-25T20:40:45.480Z,52.70
2018-07-25T20:43:12.743Z,52.50
2018-07-25T20:45:39.959Z,51.80
2018-07-25T20:48:07.259Z,52.00
2018-07-25T20:50:34.468Z,52.00
2018-07-25T20:53:01.830Z,52.00
2018-07-25T20:55:29.387Z,52.00
2018-07-25T20:57:56.615Z,52.00
2018-07-25T21:00:35.426Z,51.90
2018-07-25T21:03:04.008Z,52.40
2018-07-25T21:05:31.637Z,51.80
2018-07-25T21:07:58.808Z,51.80
2018-07-25T21:10:26.007Z,51.70
2018-07-25T21:12:53.192Z,51.90
2018-07-25T21:15:20.367Z,52.20
2018-07-25T21:17:47.531Z,51.70
2018-07-25T21:20:14.692Z,51.60
2018-07-25T21:22:41.915Z,51.60
2018-07-25T21:25:09.137Z,52.60
2018-07-25T21:27:36.309Z,53.60
2018-07-25T21:30:04.213Z,53.30
2018-07-25T21:32:31.463Z,53.70
2018-07-25T21:34:58.623Z,53.20
2018-07-25T21:37:25.777Z,53.30
2018-07-25T21:39:52.992Z,52.40
2018-07-25T21:42:20.175Z,52.80
2018-07-25T21:44:47.368Z,52.50
2018-07-25T21:47:14.541Z,53.00
2018-07-25T21:49:41.752Z,51.50
2018-07-25T21:52:08.943Z,52.50
2018-07-25T21:54:36.164Z,52.30
2018-07-25T21:57:03.353Z,53.30
2018-07-25T22:01:57.754Z,51.80
2018-07-25T22:04:24.936Z,51.50
2018-07-25T22:06:52.092Z,51.20
2018-07-25T22:09:19.266Z,51.50
2018-07-25T22:11:46.434Z,51.50
2018-07-25T22:16:40.849Z,51.80
2018-07-25T22:19:08.031Z,51.30
2018-07-25T22:21:35.224Z,51.70
2018-07-25T22:24:02.430Z,52.00
2018-07-25T22:26:29.604Z,51.30
2018-07-25T22:28:56.779Z,52.30
2018-07-25T22:31:23.977Z,52.80
2018-07-25T22:33:51.159Z,52.50
2018-07-25T22:36:18.307Z,52.60
2018-07-25T22:38:45.472Z,52.90
2018-07-25T22:41:12.649Z,53.00
2018-07-25T22:43:39.811Z,53.10
2018-07-25T22:46:07.028Z,53.10
2018-07-25T22:48:34.223Z,52.80
2018-07-25T22:51:01.383Z,53.30
2018-07-25T22:53:28.574Z,53.30
2018-07-25T22:55:55.812Z,53.70
2018-07-25T22:58:22.995Z,53.60
2018-07-25T23:00:50.188Z,53.80
2018-07-25T23:03:17.348Z,54.20
2018-07-25T23:05:44.524Z,53.90
2018-07-25T23:10:38.896Z,54.70
2018-07-25T23:13:06.072Z,54.30
2018-07-25T23:15:33.259Z,54.70
2018-07-25T23:18:00.419Z,55.00
2018-07-25T23:20:27.588Z,54.30
2018-07-25T23:22:58.968Z,54.80
2018-07-25T23:25:26.611Z,54.60
2018-07-25T23:27:54.884Z,55.10
2018-07-25T23:30:22.072Z,55.90
2018-07-25T23:32:50.058Z,55.70
2018-07-25T23:35:17.324Z,55.60
2018-07-25T23:37:44.592Z,55.50
2018-07-25T23:40:11.804Z,55.70
2018-07-25T23:42:39.022Z,55.70
2018-07-25T23:45:06.256Z,55.20
2018-07-25T23:47:33.459Z,54.70
2018-07-25T23:50:00.647Z,54.30
2018-07-25T23:52:27.803Z,55.20
2018-07-25T23:54:54.977Z,55.80
2018-07-25T23:57:22.140Z,55.60
2018-07-25T23:59:49.328Z,55.90
